TimeCDT,TemperatureF,Dew PointF,Humidity,Sea Level PressureIn,VisibilityMPH,Wind Direction,Wind SpeedMPH,Gust SpeedMPH,PrecipitationIn,Events,Conditions,WindDirDegrees,DateUTC
12:52 AM,60.1,55.9,86,30.11,10.0,Calm,Calm,-,N/A,,Clear,0,2013-07-13 05:52:00
1:52 AM,60.1,55.9,86,30.11,10.0,Calm,Calm,-,N/A,,Clear,0,2013-07-13 06:52:00
2:52 AM,59.0,55.0,87,30.13,10.0,Calm,Calm,-,N/A,,Clear,0,2013-07-13 07:52:00
3:52 AM,57.9,55.0,90,30.13,10.0,Calm,Calm,-,N/A,,Clear,0,2013-07-13 08:52:00
4:52 AM,57.9,55.0,90,30.14,9.0,NNE,3.5,-,N/A,,Clear,30,2013-07-13 09:52:00
5:52 AM,57.0,54.0,89,30.12,7.0,Calm,Calm,-,N/A,,Clear,0,2013-07-13 10:52:00
6:52 AM,63.0,59.0,87,30.15,6.0,Calm,Calm,-,N/A,,Clear,0,2013-07-13 11:52:00
7:52 AM,70.0,60.1,71,30.16,9.0,Calm,Calm,-,N/A,,Clear,0,2013-07-13 12:52:00
8:52 AM,75.0,61.0,62,30.16,10.0,SE,4.6,-,N/A,,Clear,130,2013-07-13 13:52:00
9:52 AM,78.1,59.0,52,30.16,10.0,South,4.6,-,N/A,,Clear,170,2013-07-13 14:52:00
10:52 AM,79.0,57.0,47,30.15,10.0,SE,6.9,-,N/A,,Clear,140,2013-07-13 15:52:00
11:52 AM,81.0,55.9,42,30.14,10.0,SSE,6.9,-,N/A,,Clear,160,2013-07-13 16:52:00
12:52 PM,82.0,57.9,44,30.14,10.0,SSE,8.1,-,N/A,,Clear,160,2013-07-13 17:52:00
1:52 PM,82.9,55.9,39,30.13,10.0,SE,10.4,17.3,N/A,,Clear,130,2013-07-13 18:52:00
2:52 PM,84.9,57.9,40,30.12,10.0,ESE,8.1,-,N/A,,Partly Cloudy,120,2013-07-13 19:52:00
3:52 PM,84.9,57.9,40,30.11,10.0,SE,8.1,-,N/A,,Partly Cloudy,140,2013-07-13 20:52:00
4:52 PM,84.9,57.0,38,30.10,10.0,ESE,4.6,-,N/A,,Partly Cloudy,120,2013-07-13 21:52:00
5:52 PM,84.0,60.1,44,30.10,10.0,SE,6.9,-,N/A,,Clear,130,2013-07-13 22:52:00
6:52 PM,81.0,63.0,54,30.11,10.0,SE,5.8,-,N/A,,Clear,130,2013-07-13 23:52:00
7:52 PM,79.0,62.1,56,30.10,10.0,ESE,8.1,-,N/A,,Clear,120,2013-07-14 00:52:00
8:52 PM,78.1,61.0,56,30.12,10.0,ESE,9.2,-,N/A,,Clear,110,2013-07-14 01:52:00
9:52 PM,72.0,62.1,71,30.14,10.0,East,8.1,-,N/A,,Clear,90,2013-07-14 02:52:00
10:52 PM,71.1,61.0,70,30.15,10.0,East,4.6,-,N/A,,Clear,80,2013-07-14 03:52:00
11:52 PM,66.9,61.0,81,30.15,10.0,NE,3.5,-,N/A,,Clear,40,2013-07-14 04:52:00